This is the latest recevied weather packets stored in our database for station/object VK2KGV-15. If no packets are shown the sender has not sent any weather packets the latest 10 day(s).
| Time | Temp. | Humidity | Pressure | Rain* | Wind** | Luminosity | Snow |
|---|---|---|---|---|---|---|---|
| 1778126936 | 20° C | 35% | 1015.4 hPa | 0 mm | - | - | - |
| 1778125121 | 19.44° C | 34% | 1015.3 hPa | 0 mm | - | - | - |
| 1778120899 | 18.33° C | 36% | 1016.1 hPa | 0 mm | - | - | - |
| 1778118486 | 18.33° C | 41% | 1016.5 hPa | 0 mm | - | - | - |
| 1778116678 | 18.33° C | 42% | 1016.8 hPa | 0 mm | - | - | - |
| 1778104012 | 7.22° C | 96% | 1018.8 hPa | 0 mm | - | - | - |
| 1778102203 | 3.33° C | 96% | 1019.1 hPa | 0 mm | - | - | - |
| 1778100394 | 2.22° C | 94% | 1019 hPa | 0.25 mm | - | - | - |
| 1778099187 | 2.22° C | 94% | 1018.8 hPa | 0.25 mm | - | - | - |
| 1778098584 | 2.22° C | 94% | 1018.7 hPa | 0.25 mm | - | - | - |
| 1778097981 | 2.22° C | 93% | 1018.6 hPa | 0.25 mm | - | - | - |
| 1778097378 | 2.22° C | 93% | 1018.5 hPa | 0.25 mm | - | - | - |
| 1778096775 | 2.22° C | 93% | 1018.3 hPa | 0.25 mm | - | - | - |
| 1778091950 | 3.89° C | 93% | 1018.1 hPa | 0.25 mm | - | - | - |
| 1778090744 | 3.89° C | 92% | 1018 hPa | 0.25 mm | - | - | - |
| 1778089537 | 4.44° C | 91% | 1018 hPa | 0.25 mm | - | - | - |
| 1778088935 | 4.44° C | 91% | 1018 hPa | 0.25 mm | - | - | - |
| 1778088331 | 5° C | 91% | 1018 hPa | 0.25 mm | - | - | - |
| 1778087125 | 5° C | 91% | 1018 hPa | 0.25 mm | - | - | - |
| 1778085919 | 5.56° C | 91% | 1018 hPa | 0.25 mm | - | - | - |
| 1778076269 | 8.89° C | 89% | 1018.1 hPa | 0.25 mm | - | - | - |
| 1778075063 | 8.89° C | 88% | 1018.1 hPa | 0.25 mm | - | - | - |
| 1778073857 | 9.44° C | 88% | 1018.1 hPa | 0.25 mm | - | - | - |
| 1778070238 | 10.56° C | 88% | 1018.5 hPa | 0.25 mm | - | - | - |
| 1778067826 | 11.11° C | 86% | 1018.8 hPa | 0.25 mm | - | - | - |
* Rain since midnight (hover to see other rain measurements)
** Current wind speed in m/s (hover to see current wind gust speed)